sensor_id;sensor_type;location;lat;lon;timestamp;pressure;altitude;pressure_sealevel;temperature;humidity
41254;BME280;26987;59.928;30.306;2023-03-14T00:01:16;98800.19;;;-3.34;100.00
41254;BME280;26987;59.928;30.306;2023-03-14T00:03:44;98810.53;;;-3.08;100.00
41254;BME280;26987;59.928;30.306;2023-03-14T00:06:12;98796.63;;;-3.17;100.00
41254;BME280;26987;59.928;30.306;2023-03-14T00:08:41;98794.31;;;-3.03;100.00
41254;BME280;26987;59.928;30.306;2023-03-14T00:11:11;98770.69;;;-3.03;100.00
41254;BME280;26987;59.928;30.306;2023-03-14T00:13:43;98755.97;;;-3.12;100.00
41254;BME280;26987;59.928;30.306;2023-03-14T00:16:15;98769.88;;;-2.95;100.00
41254;BME280;26987;59.928;30.306;2023-03-14T00:18:43;98745.44;;;-2.96;100.00
41254;BME280;26987;59.928;30.306;2023-03-14T00:21:12;98741.97;;;-2.88;100.00
41254;BME280;26987;59.928;30.306;2023-03-14T00:23:41;98724.28;;;-2.94;100.00
41254;BME280;26987;59.928;30.306;2023-03-14T00:26:11;98739.69;;;-2.91;100.00
41254;BME280;26987;59.928;30.306;2023-03-14T00:28:40;98740.47;;;-2.82;100.00
41254;BME280;26987;59.928;30.306;2023-03-14T00:31:10;98709.81;;;-2.82;100.00
41254;BME280;26987;59.928;30.306;2023-03-14T00:33:43;98700.63;;;-2.77;100.00
41254;BME280;26987;59.928;30.306;2023-03-14T00:36:13;98663.00;;;-3.01;100.00
41254;BME280;26987;59.928;30.306;2023-03-14T00:38:43;98684.38;;;-2.73;100.00
41254;BME280;26987;59.928;30.306;2023-03-14T00:41:13;98656.09;;;-2.94;100.00
41254;BME280;26987;59.928;30.306;2023-03-14T00:43:42;98669.75;;;-2.75;100.00
41254;BME280;26987;59.928;30.306;2023-03-14T00:46:10;98660.16;;;-2.83;100.00
41254;BME280;26987;59.928;30.306;2023-03-14T00:48:38;98665.94;;;-2.56;100.00
41254;BME280;26987;59.928;30.306;2023-03-14T00:51:08;98622.09;;;-2.79;100.00
41254;BME280;26987;59.928;30.306;2023-03-14T00:53:39;98639.44;;;-2.70;100.00
41254;BME280;26987;59.928;30.306;2023-03-14T00:56:09;98602.78;;;-2.86;100.00
41254;BME280;26987;59.928;30.306;2023-03-14T00:58:37;98642.25;;;-2.48;100.00
41254;BME280;26987;59.928;30.306;2023-03-14T01:01:06;98645.53;;;-2.46;100.00
41254;BME280;26987;59.928;30.306;2023-03-14T01:03:35;98625.66;;;-2.48;100.00
41254;BME280;26987;59.928;30.306;2023-03-14T01:06:09;98612.03;;;-2.44;100.00
41254;BME280;26987;59.928;30.306;2023-03-14T01:08:37;98608.28;;;-2.49;100.00
41254;BME280;26987;59.928;30.306;2023-03-14T01:11:07;98583.81;;;-2.42;100.00
41254;BME280;26987;59.928;30.306;2023-03-14T01:13:35;98561.53;;;-2.46;100.00
41254;BME280;26987;59.928;30.306;2023-03-14T01:16:05;98576.75;;;-2.41;100.00
41254;BME280;26987;59.928;30.306;2023-03-14T01:18:37;98581.94;;;-2.33;100.00
41254;BME280;26987;59.928;30.306;2023-03-14T01:21:12;98535.63;;;-2.49;100.00
41254;BME280;26987;59.928;30.306;2023-03-14T01:23:41;98533.41;;;-2.37;100.00
41254;BME280;26987;59.928;30.306;2023-03-14T01:26:09;98540.41;;;-2.29;100.00
41254;BME280;26987;59.928;30.306;2023-03-14T01:28:39;98546.91;;;-2.25;100.00
41254;BME280;26987;59.928;30.306;2023-03-14T01:31:09;98518.25;;;-2.35;100.00
41254;BME280;26987;59.928;30.306;2023-03-14T01:33:37;98533.69;;;-2.17;100.00
41254;BME280;26987;59.928;30.306;2023-03-14T01:36:10;98525.66;;;-2.15;100.00
41254;BME280;26987;59.928;30.306;2023-03-14T01:38:39;98493.56;;;-2.25;100.00
41254;BME280;26987;59.928;30.306;2023-03-14T01:41:13;98458.06;;;-2.36;100.00
41254;BME280;26987;59.928;30.306;2023-03-14T01:43:43;98498.50;;;-2.07;100.00
41254;BME280;26987;59.928;30.306;2023-03-14T01:46:30;98485.47;;;-2.00;100.00
41254;BME280;26987;59.928;30.306;2023-03-14T01:49:04;98475.88;;;-2.08;100.00
41254;BME280;26987;59.928;30.306;2023-03-14T01:51:41;98473.78;;;-1.98;100.00
41254;BME280;26987;59.928;30.306;2023-03-14T01:54:15;98472.25;;;-1.92;100.00
41254;BME280;26987;59.928;30.306;2023-03-14T01:56:46;98469.44;;;-1.91;100.00
41254;BME280;26987;59.928;30.306;2023-03-14T01:59:15;98460.19;;;-1.86;100.00
41254;BME280;26987;59.928;30.306;2023-03-14T02:01:44;98445.78;;;-1.91;100.00
41254;BME280;26987;59.928;30.306;2023-03-14T02:04:15;98441.78;;;-1.86;100.00
41254;BME280;26987;59.928;30.306;2023-03-14T02:06:55;98405.38;;;-1.90;100.00
41254;BME280;26987;59.928;30.306;2023-03-14T02:09:30;98431.81;;;-1.76;100.00
41254;BME280;26987;59.928;30.306;2023-03-14T02:11:59;98403.38;;;-1.72;100.00
41254;BME280;26987;59.928;30.306;2023-03-14T02:14:41;98402.44;;;-1.65;100.00
41254;BME280;26987;59.928;30.306;2023-03-14T02:17:32;98399.47;;;-1.61;100.00
41254;BME280;26987;59.928;30.306;2023-03-14T02:20:30;98384.31;;;-1.59;100.00
41254;BME280;26987;59.928;30.306;2023-03-14T02:23:03;98397.34;;;-1.51;100.00
41254;BME280;26987;59.928;30.306;2023-03-14T02:25:39;98335.22;;;-1.74;100.00
41254;BME280;26987;59.928;30.306;2023-03-14T02:28:11;98369.69;;;-1.47;100.00
41254;BME280;26987;59.928;30.306;2023-03-14T02:30:40;98350.13;;;-1.59;100.00
41254;BME280;26987;59.928;30.306;2023-03-14T02:33:10;98373.44;;;-1.34;100.00
41254;BME280;26987;59.928;30.306;2023-03-14T02:35:46;98381.84;;;-1.24;100.00
41254;BME280;26987;59.928;30.306;2023-03-14T02:38:20;98360.44;;;-1.21;100.00
41254;BME280;26987;59.928;30.306;2023-03-14T02:40:51;98370.38;;;-1.16;100.00
41254;BME280;26987;59.928;30.306;2023-03-14T02:43:21;98363.75;;;-1.12;100.00
41254;BME280;26987;59.928;30.306;2023-03-14T02:45:55;98360.09;;;-1.11;100.00
41254;BME280;26987;59.928;30.306;2023-03-14T02:48:26;98355.88;;;-1.05;100.00
41254;BME280;26987;59.928;30.306;2023-03-14T02:50:56;98351.00;;;-1.08;100.00
41254;BME280;26987;59.928;30.306;2023-03-14T02:53:28;98331.53;;;-1.14;100.00
41254;BME280;26987;59.928;30.306;2023-03-14T02:55:59;98355.78;;;-0.97;100.00
41254;BME280;26987;59.928;30.306;2023-03-14T02:58:31;98348.47;;;-0.95;100.00
41254;BME280;26987;59.928;30.306;2023-03-14T03:01:06;98359.44;;;-0.91;100.00
41254;BME280;26987;59.928;30.306;2023-03-14T03:03:34;98358.06;;;-0.87;100.00
41254;BME280;26987;59.928;30.306;2023-03-14T03:06:02;98334.19;;;-0.85;100.00
41254;BME280;26987;59.928;30.306;2023-03-14T03:08:31;98336.69;;;-0.77;100.00
41254;BME280;26987;59.928;30.306;2023-03-14T03:11:00;98340.31;;;-0.78;100.00
41254;BME280;26987;59.928;30.306;2023-03-14T03:13:32;98338.56;;;-0.71;100.00
41254;BME280;26987;59.928;30.306;2023-03-14T03:16:02;98323.00;;;-0.66;100.00
41254;BME280;26987;59.928;30.306;2023-03-14T03:18:30;98322.41;;;-0.61;100.00
41254;BME280;26987;59.928;30.306;2023-03-14T03:21:00;98320.81;;;-0.55;100.00
41254;BME280;26987;59.928;30.306;2023-03-14T03:23:28;98331.59;;;-0.50;100.00
41254;BME280;26987;59.928;30.306;2023-03-14T03:25:55;98318.03;;;-0.47;100.00
41254;BME280;26987;59.928;30.306;2023-03-14T03:28:23;98295.13;;;-0.46;100.00
41254;BME280;26987;59.928;30.306;2023-03-14T03:30:53;98297.38;;;-0.43;100.00
41254;BME280;26987;59.928;30.306;2023-03-14T03:33:22;98314.06;;;-0.29;100.00
41254;BME280;26987;59.928;30.306;2023-03-14T03:35:51;98306.78;;;-0.27;100.00
41254;BME280;26987;59.928;30.306;2023-03-14T03:38:25;98311.88;;;-0.19;100.00
41254;BME280;26987;59.928;30.306;2023-03-14T03:40:54;98286.97;;;-0.16;100.00
41254;BME280;26987;59.928;30.306;2023-03-14T03:43:25;98297.75;;;-0.11;100.00
41254;BME280;26987;59.928;30.306;2023-03-14T03:45:55;98290.03;;;-0.06;100.00
41254;BME280;26987;59.928;30.306;2023-03-14T03:48:23;98293.72;;;0.00;100.00
41254;BME280;26987;59.928;30.306;2023-03-14T03:50:51;98291.09;;;0.07;100.00
41254;BME280;26987;59.928;30.306;2023-03-14T03:53:22;98309.59;;;0.14;100.00
41254;BME280;26987;59.928;30.306;2023-03-14T03:55:50;98291.34;;;0.19;100.00
41254;BME280;26987;59.928;30.306;2023-03-14T03:58:18;98258.47;;;0.08;100.00
41254;BME280;26987;59.928;30.306;2023-03-14T04:00:46;98304.34;;;0.27;100.00
41254;BME280;26987;59.928;30.306;2023-03-14T04:03:15;98290.53;;;0.32;100.00
41254;BME280;26987;59.928;30.306;2023-03-14T04:05:43;98292.59;;;0.36;100.00
41254;BME280;26987;59.928;30.306;2023-03-14T04:08:11;98274.34;;;0.42;100.00
41254;BME280;26987;59.928;30.306;2023-03-14T04:10:39;98317.38;;;0.49;100.00
41254;BME280;26987;59.928;30.306;2023-03-14T04:13:10;98284.91;;;0.55;100.00
41254;BME280;26987;59.928;30.306;2023-03-14T04:15:39;98277.00;;;0.62;100.00
41254;BME280;26987;59.928;30.306;2023-03-14T04:18:14;98273.56;;;0.61;100.00
41254;BME280;26987;59.928;30.306;2023-03-14T04:20:44;98293.03;;;0.74;100.00
41254;BME280;26987;59.928;30.306;2023-03-14T04:23:12;98283.28;;;0.74;100.00
41254;BME280;26987;59.928;30.306;2023-03-14T04:25:40;98269.91;;;0.76;100.00
41254;BME280;26987;59.928;30.306;2023-03-14T04:28:08;98262.19;;;0.81;100.00
41254;BME280;26987;59.928;30.306;2023-03-14T04:30:36;98260.16;;;0.83;100.00
41254;BME280;26987;59.928;30.306;2023-03-14T04:33:15;98254.06;;;0.90;100.00
41254;BME280;26987;59.928;30.306;2023-03-14T04:35:53;98252.03;;;0.92;100.00
41254;BME280;26987;59.928;30.306;2023-03-14T04:38:21;98261.16;;;0.96;100.00
41254;BME280;26987;59.928;30.306;2023-03-14T04:40:50;98254.66;;;0.98;100.00
41254;BME280;26987;59.928;30.306;2023-03-14T04:43:20;98251.63;;;1.02;100.00
41254;BME280;26987;59.928;30.306;2023-03-14T04:45:53;98260.56;;;1.00;100.00
41254;BME280;26987;59.928;30.306;2023-03-14T04:48:23;98253.22;;;1.03;100.00
41254;BME280;26987;59.928;30.306;2023-03-14T04:50:51;98249.78;;;1.09;100.00
41254;BME280;26987;59.928;30.306;2023-03-14T04:53:19;98244.28;;;1.10;100.00
41254;BME280;26987;59.928;30.306;2023-03-14T04:55:49;98236.97;;;1.12;100.00
41254;BME280;26987;59.928;30.306;2023-03-14T04:58:18;98241.44;;;1.19;100.00
41254;BME280;26987;59.928;30.306;2023-03-14T05:00:47;98234.94;;;1.21;100.00
41254;BME280;26987;59.928;30.306;2023-03-14T05:03:37;98236.94;;;1.26;100.00
41254;BME280;26987;59.928;30.306;2023-03-14T05:06:40;98229.63;;;1.28;100.00
41254;BME280;26987;59.928;30.306;2023-03-14T05:09:25;98232.88;;;1.30;100.00
41254;BME280;26987;59.928;30.306;2023-03-14T05:12:11;98231.44;;;1.34;100.00
41254;BME280;26987;59.928;30.306;2023-03-14T05:14:53;98230.59;;;1.41;100.00
41254;BME280;26987;59.928;30.306;2023-03-14T05:17:42;98226.56;;;1.38;100.00
41254;BME280;26987;59.928;30.306;2023-03-14T05:20:30;98225.53;;;1.46;100.00
41254;BME280;26987;59.928;30.306;2023-03-14T05:23:20;98228.72;;;1.55;100.00
41254;BME280;26987;59.928;30.306;2023-03-14T05:26:09;98235.22;;;1.59;100.00
41254;BME280;26987;59.928;30.306;2023-03-14T05:28:55;98226.25;;;1.67;100.00
41254;BME280;26987;59.928;30.306;2023-03-14T05:31:52;98229.44;;;1.75;100.00
41254;BME280;26987;59.928;30.306;2023-03-14T05:34:39;98233.06;;;1.81;100.00
41254;BME280;26987;59.928;30.306;2023-03-14T05:37:26;98212.53;;;1.83;100.00
41254;BME280;26987;59.928;30.306;2023-03-14T05:40:27;98219.78;;;1.95;100.00
41254;BME280;26987;59.928;30.306;2023-03-14T05:43:06;98220.78;;;2.00;100.00
41254;BME280;26987;59.928;30.306;2023-03-14T05:45:54;98220.34;;;2.04;100.00
41254;BME280;26987;59.928;30.306;2023-03-14T05:48:41;98221.72;;;2.13;100.00
41254;BME280;26987;59.928;30.306;2023-03-14T05:51:28;98207.25;;;2.16;100.00
41254;BME280;26987;59.928;30.306;2023-03-14T05:54:17;98200.19;;;2.09;100.00
41254;BME280;26987;59.928;30.306;2023-03-14T05:56:57;98204.03;;;2.13;100.00
41254;BME280;26987;59.928;30.306;2023-03-14T05:59:37;98222.03;;;2.30;100.00
41254;BME280;26987;59.928;30.306;2023-03-14T06:02:12;98221.72;;;2.45;100.00
41254;BME280;26987;59.928;30.306;2023-03-14T06:04:55;98205.44;;;2.42;100.00
41254;BME280;26987;59.928;30.306;2023-03-14T06:07:23;98206.31;;;2.35;100.00
41254;BME280;26987;59.928;30.306;2023-03-14T06:09:52;98210.75;;;2.42;100.00
41254;BME280;26987;59.928;30.306;2023-03-14T06:12:20;98212.41;;;2.36;100.00
41254;BME280;26987;59.928;30.306;2023-03-14T06:14:48;98221.72;;;2.45;100.00
41254;BME280;26987;59.928;30.306;2023-03-14T06:17:16;98224.16;;;2.47;100.00
41254;BME280;26987;59.928;30.306;2023-03-14T06:20:01;98210.31;;;2.45;100.00
41254;BME280;26987;59.928;30.306;2023-03-14T06:22:31;98217.19;;;2.52;100.00
41254;BME280;26987;59.928;30.306;2023-03-14T06:25:00;98212.84;;;2.58;100.00
41254;BME280;26987;59.928;30.306;2023-03-14T06:27:28;98207.72;;;2.63;100.00
41254;BME280;26987;59.928;30.306;2023-03-14T06:29:58;98208.31;;;2.65;100.00
41254;BME280;26987;59.928;30.306;2023-03-14T06:32:26;98202.75;;;2.74;100.00
41254;BME280;26987;59.928;30.306;2023-03-14T06:34:59;98212.69;;;2.79;100.00
41254;BME280;26987;59.928;30.306;2023-03-14T06:37:28;98209.59;;;2.82;100.00
41254;BME280;26987;59.928;30.306;2023-03-14T06:39:56;98212.41;;;2.87;100.00
41254;BME280;26987;59.928;30.306;2023-03-14T06:42:47;98203.38;;;2.95;100.00
41254;BME280;26987;59.928;30.306;2023-03-14T06:45:16;98212.88;;;3.02;100.00
41254;BME280;26987;59.928;30.306;2023-03-14T06:47:45;98209.69;;;3.12;100.00
41254;BME280;26987;59.928;30.306;2023-03-14T06:50:13;98234.28;;;3.20;100.00
41254;BME280;26987;59.928;30.306;2023-03-14T06:52:42;98227.75;;;3.22;100.00
41254;BME280;26987;59.928;30.306;2023-03-14T06:55:16;98214.50;;;3.22;100.00
41254;BME280;26987;59.928;30.306;2023-03-14T06:57:44;98212.56;;;3.11;100.00
41254;BME280;26987;59.928;30.306;2023-03-14T07:00:15;98254.88;;;3.36;100.00
41254;BME280;26987;59.928;30.306;2023-03-14T07:02:43;98254.00;;;3.43;100.00
41254;BME280;26987;59.928;30.306;2023-03-14T07:05:31;98243.56;;;3.48;100.00
41254;BME280;26987;59.928;30.306;2023-03-14T07:07:59;98238.09;;;3.43;100.00
41254;BME280;26987;59.928;30.306;2023-03-14T07:10:27;98252.03;;;3.57;100.00
41254;BME280;26987;59.928;30.306;2023-03-14T07:12:55;98258.50;;;3.61;100.00
41254;BME280;26987;59.928;30.306;2023-03-14T07:15:27;98258.06;;;3.64;100.00
41254;BME280;26987;59.928;30.306;2023-03-14T07:18:00;98263.69;;;3.68;100.00
41254;BME280;26987;59.928;30.306;2023-03-14T07:20:29;98268.34;;;3.72;100.00
41254;BME280;26987;59.928;30.306;2023-03-14T07:22:59;98248.50;;;3.63;100.00
41254;BME280;26987;59.928;30.306;2023-03-14T07:25:47;98267.81;;;3.82;100.00
41254;BME280;26987;59.928;30.306;2023-03-14T07:28:16;98281.09;;;3.82;100.00
41254;BME280;26987;59.928;30.306;2023-03-14T07:30:48;98291.69;;;3.82;100.00
41254;BME280;26987;59.928;30.306;2023-03-14T07:33:20;98260.47;;;3.65;100.00
41254;BME280;26987;59.928;30.306;2023-03-14T07:35:49;98271.81;;;3.73;100.00
41254;BME280;26987;59.928;30.306;2023-03-14T07:38:17;98293.06;;;3.85;100.00
41254;BME280;26987;59.928;30.306;2023-03-14T07:41:05;98289.03;;;3.82;100.00
41254;BME280;26987;59.928;30.306;2023-03-14T07:43:37;98266.34;;;3.68;100.00
41254;BME280;26987;59.928;30.306;2023-03-14T07:46:06;98299.31;;;3.90;100.00
41254;BME280;26987;59.928;30.306;2023-03-14T07:48:34;98294.97;;;3.96;100.00
41254;BME280;26987;59.928;30.306;2023-03-14T07:51:02;98288.44;;;3.99;100.00
41254;BME280;26987;59.928;30.306;2023-03-14T07:53:30;98292.63;;;4.07;100.00
41254;BME280;26987;59.928;30.306;2023-03-14T07:55:58;98289.25;;;4.11;100.00
41254;BME280;26987;59.928;30.306;2023-03-14T07:58:26;98290.47;;;4.15;100.00
41254;BME280;26987;59.928;30.306;2023-03-14T08:00:54;98292.44;;;4.20;100.00
41254;BME280;26987;59.928;30.306;2023-03-14T08:03:23;98304.56;;;4.28;100.00
41254;BME280;26987;59.928;30.306;2023-03-14T08:05:51;98301.91;;;4.28;100.00
41254;BME280;26987;59.928;30.306;2023-03-14T08:08:19;98306.47;;;4.39;100.00
41254;BME280;26987;59.928;30.306;2023-03-14T08:10:47;98314.31;;;4.46;100.00
41254;BME280;26987;59.928;30.306;2023-03-14T08:13:15;98285.31;;;4.33;100.00
41254;BME280;26987;59.928;30.306;2023-03-14T08:15:46;98316.22;;;4.58;100.00
41254;BME280;26987;59.928;30.306;2023-03-14T08:18:14;98310.56;;;4.66;100.00
41254;BME280;26987;59.928;30.306;2023-03-14T08:20:44;98311.03;;;4.75;100.00
41254;BME280;26987;59.928;30.306;2023-03-14T08:23:11;98313.00;;;4.79;100.00
41254;BME280;26987;59.928;30.306;2023-03-14T08:25:39;98307.47;;;4.81;100.00
41254;BME280;26987;59.928;30.306;2023-03-14T08:28:07;98313.94;;;4.85;100.00
41254;BME280;26987;59.928;30.306;2023-03-14T08:30:35;98304.59;;;4.95;100.00
41254;BME280;26987;59.928;30.306;2023-03-14T08:33:03;98298.00;;;4.97;100.00
41254;BME280;26987;59.928;30.306;2023-03-14T08:35:31;98304.97;;;4.98;100.00
41254;BME280;26987;59.928;30.306;2023-03-14T08:38:00;98296.78;;;5.12;100.00
41254;BME280;26987;59.928;30.306;2023-03-14T08:40:28;98309.81;;;5.13;100.00
41254;BME280;26987;59.928;30.306;2023-03-14T08:42:56;98309.38;;;5.16;100.00
41254;BME280;26987;59.928;30.306;2023-03-14T08:45:24;98316.97;;;5.25;100.00
41254;BME280;26987;59.928;30.306;2023-03-14T08:47:52;98322.50;;;5.47;100.00
41254;BME280;26987;59.928;30.306;2023-03-14T08:50:19;98312.47;;;5.49;100.00
41254;BME280;26987;59.928;30.306;2023-03-14T08:52:49;98324.13;;;5.60;100.00
41254;BME280;26987;59.928;30.306;2023-03-14T08:55:19;98319.13;;;5.64;100.00
41254;BME280;26987;59.928;30.306;2023-03-14T08:57:46;98323.63;;;5.63;100.00
41254;BME280;26987;59.928;30.306;2023-03-14T09:00:15;98334.16;;;5.82;100.00
41254;BME280;26987;59.928;30.306;2023-03-14T09:02:44;98339.59;;;5.87;100.00
41254;BME280;26987;59.928;30.306;2023-03-14T09:05:12;98344.91;;;5.87;100.00
41254;BME280;26987;59.928;30.306;2023-03-14T09:07:41;98254.38;;;5.17;100.00
41254;BME280;26987;59.928;30.306;2023-03-14T09:10:10;98358.44;;;5.86;100.00
41254;BME280;26987;59.928;30.306;2023-03-14T09:12:40;98364.44;;;5.93;100.00
41254;BME280;26987;59.928;30.306;2023-03-14T09:15:08;98360.59;;;6.01;100.00
41254;BME280;26987;59.928;30.306;2023-03-14T09:17:36;98358.84;;;6.18;100.00
41254;BME280;26987;59.928;30.306;2023-03-14T09:20:05;98354.03;;;6.33;100.00
41254;BME280;26987;59.928;30.306;2023-03-14T09:22:35;98365.41;;;6.28;100.00
41254;BME280;26987;59.928;30.306;2023-03-14T09:25:03;98365.50;;;6.33;100.00
41254;BME280;26987;59.928;30.306;2023-03-14T09:27:31;98325.78;;;6.02;100.00
41254;BME280;26987;59.928;30.306;2023-03-14T09:30:00;98368.81;;;6.40;100.00
41254;BME280;26987;59.928;30.306;2023-03-14T09:32:28;98379.00;;;6.43;100.00
41254;BME280;26987;59.928;30.306;2023-03-14T09:34:57;98388.34;;;6.46;100.00
41254;BME280;26987;59.928;30.306;2023-03-14T09:37:25;98375.44;;;6.38;100.00
41254;BME280;26987;59.928;30.306;2023-03-14T09:39:53;98394.19;;;6.43;100.00
41254;BME280;26987;59.928;30.306;2023-03-14T09:42:22;98388.50;;;6.39;100.00
41254;BME280;26987;59.928;30.306;2023-03-14T09:44:55;98392.78;;;6.40;100.00
41254;BME280;26987;59.928;30.306;2023-03-14T09:47:25;98390.59;;;6.37;100.00
41254;BME280;26987;59.928;30.306;2023-03-14T09:49:54;98382.63;;;6.25;100.00
41254;BME280;26987;59.928;30.306;2023-03-14T09:52:24;98395.91;;;6.37;100.00
41254;BME280;26987;59.928;30.306;2023-03-14T09:54:57;98403.53;;;6.46;100.00
41254;BME280;26987;59.928;30.306;2023-03-14T09:57:29;98418.47;;;6.47;100.00
41254;BME280;26987;59.928;30.306;2023-03-14T10:00:02;98400.47;;;6.54;100.00
41254;BME280;26987;59.928;30.306;2023-03-14T10:02:41;98406.00;;;6.64;100.00
41254;BME280;26987;59.928;30.306;2023-03-14T10:05:15;98417.19;;;6.78;100.00
41254;BME280;26987;59.928;30.306;2023-03-14T10:07:43;98418.97;;;6.90;100.00
41254;BME280;26987;59.928;30.306;2023-03-14T10:10:14;98420.06;;;7.06;100.00
41254;BME280;26987;59.928;30.306;2023-03-14T10:12:45;98417.09;;;7.19;100.00
41254;BME280;26987;59.928;30.306;2023-03-14T10:15:15;98401.41;;;7.23;98.95
41254;BME280;26987;59.928;30.306;2023-03-14T10:17:51;98417.09;;;7.54;98.22
41254;BME280;26987;59.928;30.306;2023-03-14T10:20:29;98420.88;;;7.75;97.40
41254;BME280;26987;59.928;30.306;2023-03-14T10:23:00;98421.88;;;7.91;95.84
41254;BME280;26987;59.928;30.306;2023-03-14T10:25:31;98431.59;;;7.80;95.19
41254;BME280;26987;59.928;30.306;2023-03-14T10:27:59;98446.22;;;7.78;94.95
41254;BME280;26987;59.928;30.306;2023-03-14T10:30:33;98437.66;;;7.76;95.60
41254;BME280;26987;59.928;30.306;2023-03-14T10:33:10;98445.41;;;7.77;95.70
41254;BME280;26987;59.928;30.306;2023-03-14T10:35:38;98428.53;;;7.72;95.26
41254;BME280;26987;59.928;30.306;2023-03-14T10:38:12;98446.66;;;7.69;95.61
41254;BME280;26987;59.928;30.306;2023-03-14T10:40:42;98432.09;;;7.43;95.87
41254;BME280;26987;59.928;30.306;2023-03-14T10:43:17;98420.78;;;7.18;96.73
41254;BME280;26987;59.928;30.306;2023-03-14T10:45:52;98358.34;;;6.80;97.01
41254;BME280;26987;59.928;30.306;2023-03-14T10:48:31;98451.84;;;7.42;96.92
41254;BME280;26987;59.928;30.306;2023-03-14T10:51:05;98428.97;;;7.29;97.03
41254;BME280;26987;59.928;30.306;2023-03-14T10:53:39;98452.47;;;7.49;96.45
41254;BME280;26987;59.928;30.306;2023-03-14T10:56:09;98445.34;;;7.55;96.36
41254;BME280;26987;59.928;30.306;2023-03-14T10:58:41;98454.41;;;7.71;95.68
41254;BME280;26987;59.928;30.306;2023-03-14T11:01:27;98439.44;;;7.87;95.18
41254;BME280;26987;59.928;30.306;2023-03-14T11:04:02;98451.66;;;7.83;94.51
41254;BME280;26987;59.928;30.306;2023-03-14T11:06:38;98450.50;;;7.79;94.55
41254;BME280;26987;59.928;30.306;2023-03-14T11:09:14;98440.56;;;7.74;94.56
41254;BME280;26987;59.928;30.306;2023-03-14T11:11:46;98453.34;;;7.72;94.62
41254;BME280;26987;59.928;30.306;2023-03-14T11:14:20;98455.63;;;7.63;95.12
41254;BME280;26987;59.928;30.306;2023-03-14T11:16:54;98477.03;;;7.68;94.80
41254;BME280;26987;59.928;30.306;2023-03-14T11:19:44;98463.69;;;7.68;95.28
41254;BME280;26987;59.928;30.306;2023-03-14T11:22:21;98476.56;;;7.54;95.82
41254;BME280;26987;59.928;30.306;2023-03-14T11:25:07;98474.63;;;7.50;95.81
41254;BME280;26987;59.928;30.306;2023-03-14T11:27:43;98464.91;;;7.26;96.29
41254;BME280;26987;59.928;30.306;2023-03-14T11:30:21;98490.13;;;7.36;96.70
41254;BME280;26987;59.928;30.306;2023-03-14T11:32:56;98489.78;;;7.32;96.83
41254;BME280;26987;59.928;30.306;2023-03-14T11:35:34;98499.25;;;7.40;96.65
41254;BME280;26987;59.928;30.306;2023-03-14T11:38:12;98495.22;;;7.37;96.69
41254;BME280;26987;59.928;30.306;2023-03-14T11:40:41;98474.59;;;7.15;96.34
41254;BME280;26987;59.928;30.306;2023-03-14T11:43:13;98459.22;;;7.05;96.77
41254;BME280;26987;59.928;30.306;2023-03-14T11:45:43;98506.13;;;7.36;96.72
41254;BME280;26987;59.928;30.306;2023-03-14T11:48:22;98501.66;;;7.41;96.51
41254;BME280;26987;59.928;30.306;2023-03-14T11:50:55;98516.94;;;7.46;96.04
41254;BME280;26987;59.928;30.306;2023-03-14T11:53:36;98510.81;;;7.45;96.17
41254;BME280;26987;59.928;30.306;2023-03-14T11:56:11;98519.84;;;7.44;96.25
41254;BME280;26987;59.928;30.306;2023-03-14T11:58:47;98516.63;;;7.42;96.33
41254;BME280;26987;59.928;30.306;2023-03-14T12:01:18;98524.13;;;7.45;95.96
41254;BME280;26987;59.928;30.306;2023-03-14T12:03:52;98522.63;;;7.50;95.80
41254;BME280;26987;59.928;30.306;2023-03-14T12:06:28;98527.47;;;7.53;96.03
41254;BME280;26987;59.928;30.306;2023-03-14T12:09:00;98503.69;;;7.34;95.54
41254;BME280;26987;59.928;30.306;2023-03-14T12:11:36;98534.59;;;7.64;95.19
41254;BME280;26987;59.928;30.306;2023-03-14T12:14:19;98525.03;;;7.68;94.84
41254;BME280;26987;59.928;30.306;2023-03-14T12:16:48;98464.47;;;7.17;94.63
41254;BME280;26987;59.928;30.306;2023-03-14T12:19:35;98537.91;;;7.72;95.69
41254;BME280;26987;59.928;30.306;2023-03-14T12:22:24;98534.03;;;7.79;95.02
41254;BME280;26987;59.928;30.306;2023-03-14T12:24:58;98528.59;;;7.74;94.42
41254;BME280;26987;59.928;30.306;2023-03-14T12:27:43;98541.97;;;7.91;94.45
41254;BME280;26987;59.928;30.306;2023-03-14T12:30:33;98533.81;;;7.98;94.08
41254;BME280;26987;59.928;30.306;2023-03-14T12:33:29;98545.91;;;8.06;93.55
41254;BME280;26987;59.928;30.306;2023-03-14T12:36:03;98525.94;;;7.91;93.21
41254;BME280;26987;59.928;30.306;2023-03-14T12:38:59;98533.94;;;8.08;93.27
41254;BME280;26987;59.928;30.306;2023-03-14T12:41:36;98543.81;;;8.08;92.88
41254;BME280;26987;59.928;30.306;2023-03-14T12:50:18;98565.97;;;7.91;92.93
41254;BME280;26987;59.928;30.306;2023-03-14T12:53:02;98558.22;;;7.90;93.72
41254;BME280;26987;59.928;30.306;2023-03-14T12:55:37;98564.38;;;7.90;93.47
41254;BME280;26987;59.928;30.306;2023-03-14T12:58:15;98549.56;;;7.82;92.99
41254;BME280;26987;59.928;30.306;2023-03-14T13:00:44;98552.22;;;7.82;92.69
41254;BME280;26987;59.928;30.306;2023-03-14T13:03:18;98562.72;;;7.89;93.21
41254;BME280;26987;59.928;30.306;2023-03-14T13:05:52;98561.34;;;7.87;92.86
41254;BME280;26987;59.928;30.306;2023-03-14T13:08:38;98573.91;;;8.03;93.35
41254;BME280;26987;59.928;30.306;2023-03-14T13:11:10;98552.06;;;7.89;92.57
41254;BME280;26987;59.928;30.306;2023-03-14T13:13:44;98514.69;;;7.55;92.53
41254;BME280;26987;59.928;30.306;2023-03-14T13:16:16;98527.88;;;7.62;93.00
41254;BME280;26987;59.928;30.306;2023-03-14T13:18:45;98582.47;;;7.88;92.48
41254;BME280;26987;59.928;30.306;2023-03-14T13:21:16;98584.56;;;7.86;92.78
41254;BME280;26987;59.928;30.306;2023-03-14T13:23:57;98580.03;;;7.87;93.23
41254;BME280;26987;59.928;30.306;2023-03-14T13:26:34;98584.97;;;7.78;93.46